createdAt,value
2022-11-19T00:02:18.003Z,7.51
2022-11-19T00:04:47.090Z,7.54
2022-11-19T00:07:15.524Z,7.46
2022-11-19T00:09:44.241Z,7.46
2022-11-19T00:12:30.914Z,7.42
2022-11-19T00:15:00.618Z,7.45
2022-11-19T00:17:29.828Z,7.45
2022-11-19T00:19:58.173Z,7.47
2022-11-19T00:22:26.972Z,7.50
2022-11-19T00:24:55.363Z,7.47
2022-11-19T00:27:24.362Z,7.47
2022-11-19T00:29:52.744Z,7.39
2022-11-19T00:32:23.297Z,7.36
2022-11-19T00:34:51.708Z,7.36
2022-11-19T00:37:20.971Z,7.34
2022-11-19T00:39:49.762Z,7.36
2022-11-19T00:42:18.181Z,7.33
2022-11-19T00:44:47.665Z,7.22
2022-11-19T00:47:16.370Z,7.24
2022-11-19T00:49:47.175Z,7.26
2022-11-19T00:52:16.046Z,7.24
2022-11-19T00:54:44.413Z,7.23
2022-11-19T00:57:13.692Z,7.22
2022-11-19T00:59:42.142Z,7.19
2022-11-19T01:02:10.950Z,7.23
2022-11-19T01:04:39.500Z,7.25
2022-11-19T01:07:09.273Z,7.28
2022-11-19T01:09:37.995Z,7.28
2022-11-19T01:12:07.018Z,7.25
2022-11-19T01:14:35.535Z,7.28
2022-11-19T01:17:03.936Z,7.27
2022-11-19T01:19:32.956Z,7.28
2022-11-19T01:22:01.829Z,7.28
2022-11-19T01:24:31.849Z,7.28
2022-11-19T01:27:01.123Z,7.30
2022-11-19T01:29:30.049Z,7.31
2022-11-19T01:31:58.447Z,7.30
2022-11-19T01:34:27.812Z,7.36
2022-11-19T01:36:56.236Z,7.36
2022-11-19T01:39:25.602Z,7.35
2022-11-19T01:41:55.328Z,7.34
2022-11-19T01:45:00.724Z,7.33
2022-11-19T01:47:29.565Z,7.33
2022-11-19T01:49:58.022Z,7.30
2022-11-19T01:52:27.075Z,7.26
2022-11-19T01:54:56.738Z,7.21
2022-11-19T01:57:27.006Z,7.15
2022-11-19T01:59:55.615Z,7.15
2022-11-19T02:02:25.228Z,7.16
2022-11-19T02:04:57.165Z,7.19
2022-11-19T02:07:29.283Z,7.21
2022-11-19T02:10:01.424Z,7.24
2022-11-19T02:12:43.142Z,7.16
2022-11-19T02:15:23.046Z,7.19
2022-11-19T02:18:30.690Z,7.18
2022-11-19T02:21:06.710Z,7.16
2022-11-19T02:24:02.108Z,7.16
2022-11-19T02:27:00.213Z,7.15
2022-11-19T02:30:06.546Z,7.15
2022-11-19T02:32:39.757Z,7.13
2022-11-19T02:35:19.372Z,7.13
2022-11-19T02:37:54.896Z,7.17
2022-11-19T02:40:27.579Z,7.19
2022-11-19T02:43:05.186Z,7.19
2022-11-19T02:45:38.923Z,7.13
2022-11-19T02:48:13.466Z,7.15
2022-11-19T02:50:46.353Z,7.19
2022-11-19T02:53:15.606Z,7.25
2022-11-19T02:56:07.167Z,7.29
2022-11-19T02:58:56.325Z,7.32
2022-11-19T03:01:47.571Z,7.36
2022-11-19T03:04:31.209Z,7.28
2022-11-19T03:07:03.833Z,7.25
2022-11-19T03:09:35.413Z,7.19
2022-11-19T03:12:13.326Z,7.26
2022-11-19T03:15:08.874Z,7.28
2022-11-19T03:17:52.725Z,7.26
2022-11-19T03:20:26.450Z,7.21
2022-11-19T03:23:00.134Z,7.20
2022-11-19T03:25:32.986Z,7.27
2022-11-19T03:28:04.734Z,7.25
2022-11-19T03:30:33.792Z,7.23
2022-11-19T03:33:08.112Z,7.22
2022-11-19T03:35:44.264Z,7.22
2022-11-19T03:38:17.875Z,7.26
2022-11-19T03:40:49.322Z,7.24
2022-11-19T03:43:21.439Z,7.26
2022-11-19T03:45:53.164Z,7.30
2022-11-19T03:48:25.293Z,7.24
2022-11-19T03:50:58.471Z,7.19
2022-11-19T03:53:29.234Z,7.22
2022-11-19T03:56:01.411Z,7.24
2022-11-19T03:58:35.437Z,7.22
2022-11-19T04:01:03.821Z,7.18
2022-11-19T04:03:34.685Z,7.17
2022-11-19T04:06:03.436Z,7.06
2022-11-19T04:08:33.299Z,7.20
2022-11-19T04:13:29.942Z,7.19
2022-11-19T04:15:58.333Z,7.08
2022-11-19T04:18:27.558Z,7.19
2022-11-19T04:20:57.339Z,7.07
2022-11-19T04:23:25.778Z,7.20
2022-11-19T04:25:54.693Z,7.12
2022-11-19T04:28:23.376Z,7.04
2022-11-19T04:30:52.211Z,7.01
2022-11-19T04:33:20.648Z,6.94
2022-11-19T04:35:49.662Z,6.88
2022-11-19T04:38:20.038Z,6.76
2022-11-19T04:40:49.129Z,6.73
2022-11-19T04:43:17.519Z,6.61
2022-11-19T04:45:46.267Z,6.47
2022-11-19T04:48:15.093Z,6.36
2022-11-19T04:50:43.597Z,6.35
2022-11-19T04:53:12.883Z,6.24
2022-11-19T04:55:43.302Z,6.23
2022-11-19T04:58:11.776Z,6.27
2022-11-19T05:00:40.711Z,6.28
2022-11-19T05:03:09.619Z,6.23
2022-11-19T05:05:38.051Z,6.20
2022-11-19T05:08:07.555Z,6.21
2022-11-19T05:10:36.779Z,6.18
2022-11-19T05:13:07.198Z,6.15
2022-11-19T05:15:35.747Z,6.18
2022-11-19T05:18:04.648Z,6.18
2022-11-19T05:20:33.565Z,6.18
2022-11-19T05:23:02.411Z,6.12
2022-11-19T05:25:30.936Z,6.13
2022-11-19T05:28:00.149Z,6.14
2022-11-19T05:30:29.912Z,6.14
2022-11-19T05:32:59.279Z,6.02
2022-11-19T05:35:27.762Z,5.85
2022-11-19T05:37:57.114Z,6.06
2022-11-19T05:40:25.568Z,6.02
2022-11-19T05:42:54.075Z,5.95
2022-11-19T05:45:22.900Z,5.94
2022-11-19T05:47:56.462Z,5.92
2022-11-19T05:50:24.877Z,5.87
2022-11-19T05:52:54.086Z,5.87
2022-11-19T05:55:22.881Z,5.88
2022-11-19T05:57:51.327Z,5.86
2022-11-19T06:00:21.727Z,5.82
2022-11-19T06:02:50.611Z,5.79
2022-11-19T06:05:20.335Z,5.79
2022-11-19T06:07:48.770Z,5.80
2022-11-19T06:10:17.461Z,5.76
2022-11-19T06:12:46.569Z,5.75
2022-11-19T06:15:15.804Z,5.70
2022-11-19T06:17:44.245Z,5.68
2022-11-19T06:20:13.127Z,5.65
2022-11-19T06:22:43.405Z,5.56
2022-11-19T06:25:11.844Z,5.62
2022-11-19T06:27:40.930Z,5.49
2022-11-19T06:30:10.946Z,5.49
2022-11-19T06:32:39.860Z,5.54
2022-11-19T06:35:08.931Z,5.59
2022-11-19T06:37:38.319Z,5.57
2022-11-19T06:40:09.607Z,5.55
2022-11-19T06:42:38.639Z,5.53
2022-11-19T06:45:09.423Z,5.49
2022-11-19T06:47:39.563Z,5.49
2022-11-19T06:50:10.108Z,5.51
2022-11-19T06:52:39.289Z,5.49
2022-11-19T06:55:10.722Z,5.45
2022-11-19T06:57:39.202Z,5.44
2022-11-19T07:00:09.151Z,5.43
2022-11-19T07:02:38.041Z,5.43
2022-11-19T07:05:08.130Z,5.41
2022-11-19T07:07:37.089Z,5.29
2022-11-19T07:10:07.220Z,5.35
2022-11-19T07:12:38.024Z,5.40
2022-11-19T07:15:07.933Z,5.46
2022-11-19T07:17:37.809Z,5.44
2022-11-19T07:20:08.408Z,5.46
2022-11-19T07:22:36.835Z,5.48
2022-11-19T07:25:06.222Z,5.55
2022-11-19T07:27:35.716Z,5.60
2022-11-19T07:30:07.866Z,5.60
2022-11-19T07:32:36.341Z,5.58
2022-11-19T07:35:05.377Z,5.61
2022-11-19T07:37:34.114Z,5.66
2022-11-19T07:40:02.660Z,5.70
2022-11-19T07:42:49.092Z,5.73
2022-11-19T07:45:19.981Z,5.73
2022-11-19T07:47:49.156Z,5.70
2022-11-19T07:50:18.214Z,5.70
2022-11-19T07:52:46.637Z,5.68
2022-11-19T07:55:15.502Z,5.61
2022-11-19T07:57:44.422Z,5.64
2022-11-19T08:00:14.486Z,5.67
2022-11-19T08:02:44.853Z,5.64
2022-11-19T08:05:13.964Z,5.60
2022-11-19T08:07:43.485Z,5.65
2022-11-19T08:10:12.705Z,5.71
2022-11-19T08:12:41.517Z,5.72
2022-11-19T08:15:10.870Z,5.66
2022-11-19T08:17:57.230Z,5.66
2022-11-19T08:20:26.967Z,5.67
2022-11-19T08:22:55.821Z,5.67
2022-11-19T08:25:24.439Z,5.66
2022-11-19T08:27:53.731Z,5.63
2022-11-19T08:30:22.162Z,5.66
2022-11-19T08:32:50.558Z,5.72
2022-11-19T08:35:19.392Z,5.77
2022-11-19T08:37:49.363Z,5.87
2022-11-19T08:40:18.738Z,5.92
2022-11-19T08:43:01.042Z,5.93
2022-11-19T08:45:31.860Z,5.92
2022-11-19T08:48:01.932Z,5.98
2022-11-19T08:50:31.696Z,5.99
2022-11-19T08:53:05.169Z,6.02
2022-11-19T08:55:33.938Z,6.06
2022-11-19T08:58:04.056Z,5.99
2022-11-19T09:00:34.175Z,6.02
2022-11-19T09:03:02.724Z,6.04
2022-11-19T09:05:31.474Z,6.07
2022-11-19T09:08:01.307Z,6.04
2022-11-19T09:10:30.347Z,6.05
2022-11-19T09:12:58.813Z,6.01
2022-11-19T09:15:27.567Z,6.03
2022-11-19T09:17:56.385Z,5.97
2022-11-19T09:20:25.640Z,5.96
2022-11-19T09:22:55.358Z,5.99
2022-11-19T09:25:25.235Z,6.04
2022-11-19T09:27:54.101Z,6.00
2022-11-19T09:30:22.489Z,5.99
2022-11-19T09:32:51.178Z,6.03
2022-11-19T09:35:20.277Z,6.05
2022-11-19T09:37:48.736Z,6.16
2022-11-19T09:40:21.211Z,6.13
2022-11-19T09:43:01.858Z,6.21
2022-11-19T09:45:42.770Z,6.20
2022-11-19T09:48:26.037Z,6.32
2022-11-19T09:51:00.090Z,6.36
2022-11-19T09:53:34.265Z,6.50
2022-11-19T09:56:03.678Z,6.59
2022-11-19T09:58:39.758Z,6.67
2022-11-19T10:01:11.762Z,6.69
2022-11-19T10:03:42.693Z,6.69
2022-11-19T10:06:26.661Z,6.54
2022-11-19T10:09:12.115Z,6.52
2022-11-19T10:11:52.177Z,6.53
2022-11-19T10:14:41.897Z,6.54
2022-11-19T10:17:20.912Z,6.50
2022-11-19T10:20:04.873Z,6.57
2022-11-19T10:22:40.023Z,6.57
2022-11-19T10:25:18.053Z,6.61
2022-11-19T10:27:49.998Z,6.66
2022-11-19T10:30:23.577Z,6.77
2022-11-19T10:32:58.308Z,6.84
2022-11-19T10:35:31.136Z,6.93
2022-11-19T10:38:02.328Z,7.02
2022-11-19T10:40:36.611Z,7.35
2022-11-19T10:43:23.212Z,7.51
2022-11-19T10:45:54.748Z,7.37
2022-11-19T10:48:25.784Z,7.22
2022-11-19T10:50:56.184Z,7.16
2022-11-19T10:53:31.818Z,7.16
2022-11-19T10:56:04.671Z,7.17
2022-11-19T10:58:37.961Z,7.19
2022-11-19T11:01:17.745Z,7.17
2022-11-19T11:03:50.072Z,7.15
2022-11-19T11:06:19.283Z,7.11
2022-11-19T11:08:52.554Z,7.06
2022-11-19T11:11:26.321Z,7.00
2022-11-19T11:14:11.740Z,6.95
2022-11-19T11:16:47.888Z,6.97
2022-11-19T11:19:19.652Z,6.96
2022-11-19T11:21:53.664Z,6.98
2022-11-19T11:24:23.517Z,6.93
2022-11-19T11:27:22.589Z,6.92
2022-11-19T11:30:04.802Z,6.88
2022-11-19T11:32:35.435Z,6.82
2022-11-19T11:35:08.209Z,6.78
2022-11-19T11:37:38.415Z,6.72
2022-11-19T11:40:09.152Z,6.74
2022-11-19T11:42:37.586Z,6.69
2022-11-19T11:45:09.407Z,6.63
2022-11-19T11:47:41.260Z,6.63
2022-11-19T11:50:16.597Z,6.64
2022-11-19T11:52:47.839Z,6.63
2022-11-19T11:55:32.109Z,6.70
2022-11-19T11:58:03.065Z,6.76
2022-11-19T12:00:35.098Z,6.79
2022-11-19T12:03:08.367Z,6.73
2022-11-19T12:05:48.189Z,6.77
2022-11-19T12:08:32.290Z,6.91
2022-11-19T12:11:08.530Z,6.94
2022-11-19T12:13:52.467Z,6.89
2022-11-19T12:16:33.533Z,6.87
2022-11-19T12:19:18.223Z,6.90
2022-11-19T12:21:57.258Z,6.96
2022-11-19T12:24:42.217Z,7.01
2022-11-19T12:27:24.032Z,7.04
2022-11-19T12:30:05.292Z,7.01
2022-11-19T12:32:54.775Z,6.94
2022-11-19T12:35:45.971Z,6.88
2022-11-19T12:38:40.475Z,6.87
2022-11-19T12:41:24.057Z,6.86
2022-11-19T12:43:57.438Z,6.85
2022-11-19T12:46:40.480Z,6.75
2022-11-19T12:49:29.500Z,6.83
2022-11-19T12:52:06.864Z,6.83
2022-11-19T12:54:53.267Z,6.96
2022-11-19T12:57:40.466Z,7.11
2022-11-19T13:00:14.351Z,7.16
2022-11-19T13:02:53.119Z,7.22
2022-11-19T13:05:26.337Z,7.26
2022-11-19T13:08:01.490Z,7.29
2022-11-19T13:10:37.110Z,7.24
2022-11-19T13:13:10.490Z,7.24
2022-11-19T13:15:41.146Z,7.19
2022-11-19T13:18:16.681Z,7.16
2022-11-19T13:20:50.684Z,7.11
2022-11-19T13:23:25.398Z,7.02
2022-11-19T13:25:59.421Z,7.00
2022-11-19T13:28:36.259Z,6.99
2022-11-19T13:31:08.591Z,6.89
2022-11-19T13:33:45.003Z,6.81
2022-11-19T13:36:19.646Z,6.76
2022-11-19T13:38:54.774Z,6.72
2022-11-19T13:41:26.981Z,6.71
2022-11-19T13:44:15.461Z,6.73
2022-11-19T13:46:47.014Z,6.76
2022-11-19T13:49:22.006Z,6.77
2022-11-19T13:51:53.847Z,6.74
2022-11-19T13:54:26.553Z,6.71
2022-11-19T13:56:58.174Z,6.61
2022-11-19T13:59:33.670Z,6.61
2022-11-19T14:02:38.771Z,6.60
2022-11-19T14:05:35.059Z,6.55
2022-11-19T14:08:18.540Z,6.45
2022-11-19T14:11:04.622Z,6.39
2022-11-19T14:13:46.884Z,6.41
2022-11-19T14:16:43.984Z,6.40
2022-11-19T14:19:33.317Z,6.41
2022-11-19T14:22:39.867Z,6.39
2022-11-19T14:25:28.282Z,6.34
2022-11-19T14:27:57.382Z,6.36
2022-11-19T14:31:03.113Z,6.39
2022-11-19T14:34:01.364Z,6.38
2022-11-19T14:36:42.887Z,6.28
2022-11-19T14:39:19.124Z,6.30
2022-11-19T14:42:13.346Z,6.30
2022-11-19T14:44:42.411Z,6.31
2022-11-19T14:47:34.565Z,6.34
2022-11-19T14:50:06.830Z,6.32
2022-11-19T14:52:39.702Z,6.33
2022-11-19T14:55:22.845Z,6.29
2022-11-19T14:57:58.499Z,6.30
2022-11-19T15:00:31.428Z,6.26
2022-11-19T15:03:02.387Z,6.25
2022-11-19T15:05:34.629Z,6.19
2022-11-19T15:08:44.295Z,6.20
2022-11-19T15:11:14.327Z,6.19
2022-11-19T15:13:46.424Z,6.19
2022-11-19T15:16:17.933Z,6.13
2022-11-19T15:19:22.738Z,6.18
2022-11-19T15:22:33.852Z,6.17
2022-11-19T15:25:31.016Z,6.14
2022-11-19T15:28:07.886Z,6.15
2022-11-19T15:30:53.615Z,6.14
2022-11-19T15:33:56.956Z,6.14
2022-11-19T15:36:31.806Z,6.14
2022-11-19T15:39:06.006Z,6.13
2022-11-19T15:41:39.978Z,6.11
2022-11-19T15:44:14.082Z,6.12
2022-11-19T15:46:52.157Z,6.11
2022-11-19T15:49:24.378Z,6.10
2022-11-19T15:52:06.081Z,6.08
2022-11-19T15:54:36.299Z,6.05
2022-11-19T15:57:07.833Z,6.06
2022-11-19T15:59:39.781Z,6.59
2022-11-19T16:02:22.043Z,6.39
2022-11-19T16:04:51.375Z,6.29
2022-11-19T16:07:25.877Z,6.25
2022-11-19T16:09:55.635Z,6.01
2022-11-19T16:12:42.993Z,5.86
2022-11-19T16:15:38.019Z,5.87
2022-11-19T16:18:15.690Z,5.77
2022-11-19T16:20:47.779Z,5.71
2022-11-19T16:23:22.373Z,5.70
2022-11-19T16:25:51.633Z,5.63
2022-11-19T16:28:24.513Z,5.68
2022-11-19T16:30:54.854Z,5.76
2022-11-19T16:33:27.659Z,5.64
2022-11-19T16:36:14.055Z,5.62
2022-11-19T16:38:44.450Z,5.60
2022-11-19T16:41:31.535Z,5.52
2022-11-19T16:44:00.509Z,5.54
2022-11-19T16:46:31.499Z,5.61
2022-11-19T16:49:03.395Z,5.63
2022-11-19T16:51:37.737Z,5.68
2022-11-19T16:54:08.595Z,5.70
2022-11-19T16:56:41.941Z,5.70
2022-11-19T16:59:19.170Z,5.69
2022-11-19T17:01:56.959Z,5.75
2022-11-19T17:04:30.182Z,5.61
2022-11-19T17:06:59.897Z,5.62
2022-11-19T17:09:44.308Z,5.64
2022-11-19T17:12:27.737Z,5.68
2022-11-19T17:14:59.428Z,5.71
2022-11-19T17:17:40.223Z,5.65
2022-11-19T17:21:00.294Z,5.70
2022-11-19T17:23:32.280Z,5.54
2022-11-19T17:26:03.137Z,5.53
2022-11-19T17:28:38.372Z,5.60
2022-11-19T17:31:15.998Z,5.66
2022-11-19T17:33:52.038Z,5.71
2022-11-19T17:36:22.555Z,5.74
2022-11-19T17:38:52.572Z,5.78
2022-11-19T17:41:38.427Z,5.82
2022-11-19T17:44:30.363Z,5.84
2022-11-19T17:47:00.183Z,5.82
2022-11-19T17:49:28.567Z,5.88
2022-11-19T17:51:57.922Z,5.88
2022-11-19T17:54:27.841Z,5.84
2022-11-19T17:56:56.708Z,5.86
2022-11-19T17:59:25.889Z,5.84
2022-11-19T18:01:54.369Z,5.82
2022-11-19T18:04:23.284Z,5.83
2022-11-19T18:06:51.728Z,5.88
2022-11-19T18:09:20.569Z,5.82
2022-11-19T18:11:51.452Z,5.70
2022-11-19T18:14:20.273Z,5.62
2022-11-19T18:16:50.022Z,5.66
2022-11-19T18:19:26.554Z,5.73
2022-11-19T18:21:55.787Z,5.77
2022-11-19T18:24:25.338Z,5.77
2022-11-19T18:26:55.511Z,5.77
2022-11-19T18:29:24.671Z,5.72
2022-11-19T18:31:54.151Z,5.69
2022-11-19T18:34:24.580Z,5.68
2022-11-19T18:36:53.302Z,5.63
2022-11-19T18:39:22.380Z,5.66
2022-11-19T18:41:52.704Z,5.55
2022-11-19T18:44:33.968Z,5.63
2022-11-19T18:47:03.786Z,5.61
2022-11-19T18:49:33.790Z,5.59
2022-11-19T18:52:02.381Z,5.60
2022-11-19T18:54:31.641Z,5.61
2022-11-19T18:57:00.230Z,5.61
2022-11-19T18:59:30.914Z,5.64
2022-11-19T19:01:59.631Z,5.62
2022-11-19T19:04:28.132Z,5.52
2022-11-19T19:06:59.611Z,5.50
2022-11-19T19:09:28.183Z,5.39
2022-11-19T19:12:14.328Z,5.43
2022-11-19T19:14:44.974Z,5.42
2022-11-19T19:17:15.096Z,5.44
2022-11-19T19:19:43.662Z,5.27
2022-11-19T19:22:12.902Z,5.30
2022-11-19T19:24:42.306Z,5.21
2022-11-19T19:27:11.118Z,5.18
2022-11-19T19:29:40.537Z,5.26
2022-11-19T19:32:10.300Z,5.34
2022-11-19T19:34:39.793Z,5.37
2022-11-19T19:37:08.242Z,5.46
2022-11-19T19:39:38.076Z,5.51
2022-11-19T19:42:06.771Z,5.42
2022-11-19T19:44:40.713Z,5.47
2022-11-19T19:47:10.978Z,5.50
2022-11-19T19:49:39.506Z,5.64
2022-11-19T19:52:08.914Z,6.26
2022-11-19T19:54:37.450Z,6.06
2022-11-19T19:57:06.753Z,5.87
2022-11-19T19:59:35.471Z,5.58
2022-11-19T20:02:03.892Z,5.52
2022-11-19T20:04:34.065Z,5.50
2022-11-19T20:07:03.195Z,5.38
2022-11-19T20:09:31.653Z,5.30
2022-11-19T20:12:00.942Z,5.34
2022-11-19T20:14:30.062Z,5.42
2022-11-19T20:16:58.727Z,5.63
2022-11-19T20:19:27.188Z,5.66
2022-11-19T20:21:56.921Z,5.77
2022-11-19T20:24:25.768Z,5.85
2022-11-19T20:26:55.648Z,5.86
2022-11-19T20:29:24.406Z,5.82
2022-11-19T20:31:52.893Z,5.76
2022-11-19T20:34:21.892Z,5.75
2022-11-19T20:36:50.348Z,5.80
2022-11-19T20:39:20.418Z,5.77
2022-11-19T20:42:07.976Z,5.76
2022-11-19T20:44:36.402Z,5.78
2022-11-19T20:47:05.806Z,5.82
2022-11-19T20:49:38.694Z,5.84
2022-11-19T20:52:07.920Z,5.84
2022-11-19T20:54:37.897Z,5.79
2022-11-19T20:57:07.229Z,5.75
2022-11-19T20:59:36.498Z,5.74
2022-11-19T21:02:05.357Z,5.72
2022-11-19T21:04:37.613Z,5.70
2022-11-19T21:07:07.176Z,5.68
2022-11-19T21:09:37.524Z,5.68
2022-11-19T21:12:07.182Z,5.68
2022-11-19T21:14:35.902Z,5.64
2022-11-19T21:17:04.382Z,5.69
2022-11-19T21:19:32.845Z,5.67
2022-11-19T21:22:01.811Z,5.65
2022-11-19T21:24:30.761Z,5.65
2022-11-19T21:27:00.672Z,5.72
2022-11-19T21:29:29.190Z,5.64
2022-11-19T21:31:59.007Z,5.66
2022-11-19T21:34:27.475Z,5.66
2022-11-19T21:36:58.293Z,5.71
2022-11-19T21:39:27.131Z,5.72
2022-11-19T21:41:57.146Z,5.74
2022-11-19T21:44:27.224Z,5.72
2022-11-19T21:46:55.591Z,5.77
2022-11-19T21:49:25.122Z,5.78
2022-11-19T21:51:53.506Z,5.75
2022-11-19T21:54:22.861Z,5.77
2022-11-19T21:56:51.784Z,5.73
2022-11-19T21:59:20.482Z,5.75
2022-11-19T22:01:54.749Z,5.76
2022-11-19T22:04:23.628Z,5.76
2022-11-19T22:06:52.455Z,5.74
2022-11-19T22:09:21.170Z,5.72
2022-11-19T22:11:50.696Z,5.71
2022-11-19T22:14:19.158Z,5.71
2022-11-19T22:16:48.046Z,5.71
2022-11-19T22:19:19.550Z,5.72
2022-11-19T22:21:48.709Z,5.72
2022-11-19T22:24:17.338Z,5.71
2022-11-19T22:26:47.720Z,5.73
2022-11-19T22:29:16.735Z,5.70
2022-11-19T22:31:45.216Z,5.72
2022-11-19T22:34:14.662Z,5.66
2022-11-19T22:36:44.838Z,5.68
2022-11-19T22:39:14.179Z,5.66
2022-11-19T22:41:43.002Z,5.68
2022-11-19T22:44:11.686Z,5.69
2022-11-19T22:46:40.085Z,5.71
2022-11-19T22:49:09.338Z,5.73
2022-11-19T22:51:37.932Z,5.75
2022-11-19T22:54:09.083Z,5.75
2022-11-19T22:56:37.669Z,5.77
2022-11-19T22:59:07.061Z,5.78
2022-11-19T23:01:36.564Z,5.78
2022-11-19T23:04:07.062Z,5.79
2022-11-19T23:06:37.262Z,5.84
2022-11-19T23:09:08.480Z,5.87
2022-11-19T23:11:55.044Z,5.91
2022-11-19T23:14:25.211Z,5.93
2022-11-19T23:16:54.376Z,5.93
2022-11-19T23:19:23.478Z,5.86
2022-11-19T23:21:52.155Z,5.87
2022-11-19T23:24:22.575Z,5.87
2022-11-19T23:26:50.965Z,5.90
2022-11-19T23:29:20.914Z,5.93
2022-11-19T23:31:50.030Z,5.94
2022-11-19T23:34:19.035Z,5.95
2022-11-19T23:36:47.418Z,5.92
2022-11-19T23:39:18.391Z,5.95
2022-11-19T23:41:48.634Z,5.90
2022-11-19T23:44:17.098Z,5.88
2022-11-19T23:46:47.021Z,5.91
2022-11-19T23:49:15.480Z,5.92
2022-11-19T23:51:44.964Z,5.92
2022-11-19T23:54:13.882Z,5.88
2022-11-19T23:56:43.408Z,5.84
2022-11-19T23:59:13.634Z,5.87
